sensor_id;sensor_type;location;lat;lon;timestamp;temperature;humidity
21678;DHT22;11000;50.360;7.582;2022-08-16T00:00:16;20.70;99.90
21678;DHT22;11000;50.360;7.582;2022-08-16T00:02:37;20.70;99.90
21678;DHT22;11000;50.360;7.582;2022-08-16T00:04:58;20.70;99.90
21678;DHT22;11000;50.360;7.582;2022-08-16T00:07:18;20.60;99.90
21678;DHT22;11000;50.360;7.582;2022-08-16T00:09:39;20.40;99.90
21678;DHT22;11000;50.360;7.582;2022-08-16T00:12:00;20.50;99.90
21678;DHT22;11000;50.360;7.582;2022-08-16T00:14:24;20.60;99.90
21678;DHT22;11000;50.360;7.582;2022-08-16T00:16:46;20.60;99.90
21678;DHT22;11000;50.360;7.582;2022-08-16T00:19:07;20.60;99.90
21678;DHT22;11000;50.360;7.582;2022-08-16T00:21:27;20.60;99.90
21678;DHT22;11000;50.360;7.582;2022-08-16T00:23:48;20.50;99.90
21678;DHT22;11000;50.360;7.582;2022-08-16T00:26:08;20.30;99.90
21678;DHT22;11000;50.360;7.582;2022-08-16T00:28:29;20.20;99.90
21678;DHT22;11000;50.360;7.582;2022-08-16T00:30:50;20.20;99.90
21678;DHT22;11000;50.360;7.582;2022-08-16T00:33:11;20.30;99.90
21678;DHT22;11000;50.360;7.582;2022-08-16T00:35:34;20.20;99.90
21678;DHT22;11000;50.360;7.582;2022-08-16T00:37:55;20.30;99.90
21678;DHT22;11000;50.360;7.582;2022-08-16T00:40:20;20.30;99.90
21678;DHT22;11000;50.360;7.582;2022-08-16T00:42:41;20.30;99.90
21678;DHT22;11000;50.360;7.582;2022-08-16T00:45:54;20.40;99.90
21678;DHT22;11000;50.360;7.582;2022-08-16T00:47:48;20.40;99.90
21678;DHT22;11000;50.360;7.582;2022-08-16T00:50:09;20.40;99.90
21678;DHT22;11000;50.360;7.582;2022-08-16T00:52:30;20.40;99.90
21678;DHT22;11000;50.360;7.582;2022-08-16T00:54:51;20.40;99.90
21678;DHT22;11000;50.360;7.582;2022-08-16T00:57:11;20.30;99.90
21678;DHT22;11000;50.360;7.582;2022-08-16T00:59:35;20.30;99.90
21678;DHT22;11000;50.360;7.582;2022-08-16T01:01:57;20.30;99.90
21678;DHT22;11000;50.360;7.582;2022-08-16T01:04:22;20.10;99.90
21678;DHT22;11000;50.360;7.582;2022-08-16T01:06:43;20.10;99.90
21678;DHT22;11000;50.360;7.582;2022-08-16T01:09:05;19.90;99.90
21678;DHT22;11000;50.360;7.582;2022-08-16T01:11:26;19.90;99.90
21678;DHT22;11000;50.360;7.582;2022-08-16T01:13:48;19.90;99.90
21678;DHT22;11000;50.360;7.582;2022-08-16T01:16:15;19.80;99.90
21678;DHT22;11000;50.360;7.582;2022-08-16T01:18:44;19.70;99.90
21678;DHT22;11000;50.360;7.582;2022-08-16T01:26:39;19.80;99.90
21678;DHT22;11000;50.360;7.582;2022-08-16T01:29:16;19.80;99.90
21678;DHT22;11000;50.360;7.582;2022-08-16T01:31:37;19.90;99.90
21678;DHT22;11000;50.360;7.582;2022-08-16T01:33:58;20.00;99.90
21678;DHT22;11000;50.360;7.582;2022-08-16T01:36:19;19.90;99.90
21678;DHT22;11000;50.360;7.582;2022-08-16T01:38:46;20.00;99.90
21678;DHT22;11000;50.360;7.582;2022-08-16T01:41:10;20.00;99.90
21678;DHT22;11000;50.360;7.582;2022-08-16T01:43:32;19.90;99.90
21678;DHT22;11000;50.360;7.582;2022-08-16T01:45:58;20.00;99.90
21678;DHT22;11000;50.360;7.582;2022-08-16T01:48:19;19.80;99.90
21678;DHT22;11000;50.360;7.582;2022-08-16T01:50:41;19.70;99.90
21678;DHT22;11000;50.360;7.582;2022-08-16T01:53:03;19.70;99.90
21678;DHT22;11000;50.360;7.582;2022-08-16T01:55:24;19.60;99.90
21678;DHT22;11000;50.360;7.582;2022-08-16T01:57:44;19.60;99.90
21678;DHT22;11000;50.360;7.582;2022-08-16T02:00:07;19.60;99.90
21678;DHT22;11000;50.360;7.582;2022-08-16T02:02:29;19.60;99.90
21678;DHT22;11000;50.360;7.582;2022-08-16T02:04:50;19.70;99.90
21678;DHT22;11000;50.360;7.582;2022-08-16T02:07:11;19.70;99.90
21678;DHT22;11000;50.360;7.582;2022-08-16T02:09:32;19.70;99.90
21678;DHT22;11000;50.360;7.582;2022-08-16T02:11:56;19.60;99.90
21678;DHT22;11000;50.360;7.582;2022-08-16T02:14:17;19.40;99.90
21678;DHT22;11000;50.360;7.582;2022-08-16T02:16:39;19.30;99.90
21678;DHT22;11000;50.360;7.582;2022-08-16T02:19:02;19.20;99.90
21678;DHT22;11000;50.360;7.582;2022-08-16T02:21:23;19.10;99.90
21678;DHT22;11000;50.360;7.582;2022-08-16T02:23:44;19.00;99.90
21678;DHT22;11000;50.360;7.582;2022-08-16T02:26:05;19.10;99.90
21678;DHT22;11000;50.360;7.582;2022-08-16T02:28:26;19.10;99.90
21678;DHT22;11000;50.360;7.582;2022-08-16T02:30:47;19.00;99.90
21678;DHT22;11000;50.360;7.582;2022-08-16T02:33:08;19.00;99.90
21678;DHT22;11000;50.360;7.582;2022-08-16T02:35:29;19.00;99.90
21678;DHT22;11000;50.360;7.582;2022-08-16T02:37:50;19.00;99.90
21678;DHT22;11000;50.360;7.582;2022-08-16T02:40:13;19.10;99.90
21678;DHT22;11000;50.360;7.582;2022-08-16T02:42:36;19.20;99.90
21678;DHT22;11000;50.360;7.582;2022-08-16T02:44:56;19.30;99.90
21678;DHT22;11000;50.360;7.582;2022-08-16T02:47:17;19.30;99.90
21678;DHT22;11000;50.360;7.582;2022-08-16T02:49:37;19.30;99.90
21678;DHT22;11000;50.360;7.582;2022-08-16T02:51:58;19.30;99.90
21678;DHT22;11000;50.360;7.582;2022-08-16T02:54:18;19.30;99.90
21678;DHT22;11000;50.360;7.582;2022-08-16T02:56:41;19.30;99.90
21678;DHT22;11000;50.360;7.582;2022-08-16T02:59:02;19.30;99.90
21678;DHT22;11000;50.360;7.582;2022-08-16T03:01:26;19.30;99.90
21678;DHT22;11000;50.360;7.582;2022-08-16T03:03:47;19.20;99.90
21678;DHT22;11000;50.360;7.582;2022-08-16T03:06:08;19.10;99.90
21678;DHT22;11000;50.360;7.582;2022-08-16T03:08:29;19.00;99.90
21678;DHT22;11000;50.360;7.582;2022-08-16T03:10:49;19.10;99.90
21678;DHT22;11000;50.360;7.582;2022-08-16T03:13:10;18.80;99.90
21678;DHT22;11000;50.360;7.582;2022-08-16T03:15:31;18.90;99.90
21678;DHT22;11000;50.360;7.582;2022-08-16T03:17:52;19.00;99.90
21678;DHT22;11000;50.360;7.582;2022-08-16T03:20:15;19.00;99.90
21678;DHT22;11000;50.360;7.582;2022-08-16T03:22:36;19.00;99.90
21678;DHT22;11000;50.360;7.582;2022-08-16T03:24:59;18.90;99.90
21678;DHT22;11000;50.360;7.582;2022-08-16T03:27:20;18.90;99.90
21678;DHT22;11000;50.360;7.582;2022-08-16T03:29:40;18.90;99.90
21678;DHT22;11000;50.360;7.582;2022-08-16T03:32:01;18.90;99.90
21678;DHT22;11000;50.360;7.582;2022-08-16T03:34:22;18.90;99.90
21678;DHT22;11000;50.360;7.582;2022-08-16T03:36:43;19.00;99.90
21678;DHT22;11000;50.360;7.582;2022-08-16T03:39:03;19.00;99.90
21678;DHT22;11000;50.360;7.582;2022-08-16T03:41:24;19.10;99.90
21678;DHT22;11000;50.360;7.582;2022-08-16T03:43:46;19.10;99.90
21678;DHT22;11000;50.360;7.582;2022-08-16T03:46:07;19.10;99.90
21678;DHT22;11000;50.360;7.582;2022-08-16T03:48:34;19.20;99.90
21678;DHT22;11000;50.360;7.582;2022-08-16T03:50:56;19.20;99.90
21678;DHT22;11000;50.360;7.582;2022-08-16T03:53:16;19.30;99.90
21678;DHT22;11000;50.360;7.582;2022-08-16T03:55:37;19.30;99.90
21678;DHT22;11000;50.360;7.582;2022-08-16T03:57:57;19.30;99.90
21678;DHT22;11000;50.360;7.582;2022-08-16T04:00:22;19.20;99.90
21678;DHT22;11000;50.360;7.582;2022-08-16T04:02:44;19.20;99.90
21678;DHT22;11000;50.360;7.582;2022-08-16T04:05:05;19.20;99.90
21678;DHT22;11000;50.360;7.582;2022-08-16T04:07:25;19.20;99.90
21678;DHT22;11000;50.360;7.582;2022-08-16T04:09:46;19.20;99.90
21678;DHT22;11000;50.360;7.582;2022-08-16T04:12:08;19.30;99.90
21678;DHT22;11000;50.360;7.582;2022-08-16T04:14:30;19.20;99.90
21678;DHT22;11000;50.360;7.582;2022-08-16T04:16:50;19.00;99.90
21678;DHT22;11000;50.360;7.582;2022-08-16T04:19:11;19.00;99.90
21678;DHT22;11000;50.360;7.582;2022-08-16T04:21:34;18.90;99.90
21678;DHT22;11000;50.360;7.582;2022-08-16T04:23:55;18.90;99.90
21678;DHT22;11000;50.360;7.582;2022-08-16T04:26:16;18.90;99.90
21678;DHT22;11000;50.360;7.582;2022-08-16T04:28:37;18.90;99.90
21678;DHT22;11000;50.360;7.582;2022-08-16T04:30:58;18.90;99.90
21678;DHT22;11000;50.360;7.582;2022-08-16T04:33:21;18.90;99.90
21678;DHT22;11000;50.360;7.582;2022-08-16T04:35:43;18.80;99.90
21678;DHT22;11000;50.360;7.582;2022-08-16T04:38:04;18.80;99.90
21678;DHT22;11000;50.360;7.582;2022-08-16T04:40:25;18.70;99.90
21678;DHT22;11000;50.360;7.582;2022-08-16T04:42:50;18.60;99.90
21678;DHT22;11000;50.360;7.582;2022-08-16T04:45:14;18.50;99.90
21678;DHT22;11000;50.360;7.582;2022-08-16T04:47:35;18.60;99.90
21678;DHT22;11000;50.360;7.582;2022-08-16T04:49:56;18.70;99.90
21678;DHT22;11000;50.360;7.582;2022-08-16T04:52:16;18.60;99.90
21678;DHT22;11000;50.360;7.582;2022-08-16T04:54:37;18.60;99.90
21678;DHT22;11000;50.360;7.582;2022-08-16T04:56:59;18.70;99.90
21678;DHT22;11000;50.360;7.582;2022-08-16T04:59:20;18.80;99.90
21678;DHT22;11000;50.360;7.582;2022-08-16T05:01:42;18.80;99.90
21678;DHT22;11000;50.360;7.582;2022-08-16T05:04:03;18.80;99.90
21678;DHT22;11000;50.360;7.582;2022-08-16T05:06:24;18.90;99.90
21678;DHT22;11000;50.360;7.582;2022-08-16T05:08:45;19.00;99.90
21678;DHT22;11000;50.360;7.582;2022-08-16T05:11:09;19.10;99.90
21678;DHT22;11000;50.360;7.582;2022-08-16T05:13:32;19.10;99.90
21678;DHT22;11000;50.360;7.582;2022-08-16T05:15:53;19.00;99.90
21678;DHT22;11000;50.360;7.582;2022-08-16T05:18:14;19.10;99.90
21678;DHT22;11000;50.360;7.582;2022-08-16T05:20:35;19.10;99.90
21678;DHT22;11000;50.360;7.582;2022-08-16T05:22:55;19.00;99.90
21678;DHT22;11000;50.360;7.582;2022-08-16T05:25:16;18.90;99.90
21678;DHT22;11000;50.360;7.582;2022-08-16T05:27:39;18.90;99.90
21678;DHT22;11000;50.360;7.582;2022-08-16T05:30:00;19.00;99.90
21678;DHT22;11000;50.360;7.582;2022-08-16T05:32:21;19.00;99.90
21678;DHT22;11000;50.360;7.582;2022-08-16T05:34:41;19.00;99.90
21678;DHT22;11000;50.360;7.582;2022-08-16T05:37:02;19.00;99.90
21678;DHT22;11000;50.360;7.582;2022-08-16T05:39:23;19.10;99.90
21678;DHT22;11000;50.360;7.582;2022-08-16T05:41:44;19.10;99.90
21678;DHT22;11000;50.360;7.582;2022-08-16T05:44:05;19.20;99.90
21678;DHT22;11000;50.360;7.582;2022-08-16T05:46:25;19.20;99.90
21678;DHT22;11000;50.360;7.582;2022-08-16T05:48:46;19.40;99.90
21678;DHT22;11000;50.360;7.582;2022-08-16T05:51:07;19.80;99.90
21678;DHT22;11000;50.360;7.582;2022-08-16T05:53:27;20.10;99.90
21678;DHT22;11000;50.360;7.582;2022-08-16T05:55:49;20.20;99.90
21678;DHT22;11000;50.360;7.582;2022-08-16T05:58:09;20.60;99.90
21678;DHT22;11000;50.360;7.582;2022-08-16T06:00:30;20.80;99.90
21678;DHT22;11000;50.360;7.582;2022-08-16T06:02:52;21.00;99.90
21678;DHT22;11000;50.360;7.582;2022-08-16T06:05:13;21.40;99.90
21678;DHT22;11000;50.360;7.582;2022-08-16T06:07:33;21.80;99.90
21678;DHT22;11000;50.360;7.582;2022-08-16T06:09:54;21.70;99.90
21678;DHT22;11000;50.360;7.582;2022-08-16T06:12:18;22.00;99.90
21678;DHT22;11000;50.360;7.582;2022-08-16T06:14:40;22.00;99.90
21678;DHT22;11000;50.360;7.582;2022-08-16T06:17:01;22.30;99.90
21678;DHT22;11000;50.360;7.582;2022-08-16T06:19:25;22.50;99.90
21678;DHT22;11000;50.360;7.582;2022-08-16T06:21:46;22.70;99.90
21678;DHT22;11000;50.360;7.582;2022-08-16T06:24:06;22.70;99.90
21678;DHT22;11000;50.360;7.582;2022-08-16T06:26:27;22.80;99.90
21678;DHT22;11000;50.360;7.582;2022-08-16T06:28:48;23.00;99.90
21678;DHT22;11000;50.360;7.582;2022-08-16T06:31:11;23.20;99.90
21678;DHT22;11000;50.360;7.582;2022-08-16T06:33:32;23.20;99.90
21678;DHT22;11000;50.360;7.582;2022-08-16T06:35:53;23.40;99.90
21678;DHT22;11000;50.360;7.582;2022-08-16T06:38:14;23.60;99.90
21678;DHT22;11000;50.360;7.582;2022-08-16T06:40:36;23.40;99.90
21678;DHT22;11000;50.360;7.582;2022-08-16T06:42:58;23.80;99.90
21678;DHT22;11000;50.360;7.582;2022-08-16T06:45:19;23.50;99.90
21678;DHT22;11000;50.360;7.582;2022-08-16T06:47:40;22.90;99.90
21678;DHT22;11000;50.360;7.582;2022-08-16T06:50:00;23.00;99.90
21678;DHT22;11000;50.360;7.582;2022-08-16T06:52:22;23.40;99.90
21678;DHT22;11000;50.360;7.582;2022-08-16T06:54:43;23.70;99.90
21678;DHT22;11000;50.360;7.582;2022-08-16T06:57:04;24.30;99.90
21678;DHT22;11000;50.360;7.582;2022-08-16T06:59:26;24.60;99.90
21678;DHT22;11000;50.360;7.582;2022-08-16T07:01:46;25.00;99.90
21678;DHT22;11000;50.360;7.582;2022-08-16T07:04:07;25.60;99.90
21678;DHT22;11000;50.360;7.582;2022-08-16T07:06:28;25.80;99.90
21678;DHT22;11000;50.360;7.582;2022-08-16T07:08:51;26.00;99.90
21678;DHT22;11000;50.360;7.582;2022-08-16T07:11:13;26.50;99.90
21678;DHT22;11000;50.360;7.582;2022-08-16T07:13:34;26.60;99.90
21678;DHT22;11000;50.360;7.582;2022-08-16T07:15:56;26.70;99.90
21678;DHT22;11000;50.360;7.582;2022-08-16T07:18:20;26.50;99.90
21678;DHT22;11000;50.360;7.582;2022-08-16T07:20:41;26.70;99.90
21678;DHT22;11000;50.360;7.582;2022-08-16T07:23:01;26.90;99.90
21678;DHT22;11000;50.360;7.582;2022-08-16T07:25:23;26.70;99.90
21678;DHT22;11000;50.360;7.582;2022-08-16T07:27:45;26.90;99.90
21678;DHT22;11000;50.360;7.582;2022-08-16T07:30:08;26.90;99.90
21678;DHT22;11000;50.360;7.582;2022-08-16T07:32:29;26.70;99.90
21678;DHT22;11000;50.360;7.582;2022-08-16T07:34:50;26.70;99.90
21678;DHT22;11000;50.360;7.582;2022-08-16T07:37:11;27.00;99.90
21678;DHT22;11000;50.360;7.582;2022-08-16T07:39:31;27.20;99.90
21678;DHT22;11000;50.360;7.582;2022-08-16T07:41:52;27.30;99.90
21678;DHT22;11000;50.360;7.582;2022-08-16T07:44:12;27.20;99.90
21678;DHT22;11000;50.360;7.582;2022-08-16T07:46:33;27.30;99.90
21678;DHT22;11000;50.360;7.582;2022-08-16T07:48:54;27.50;99.90
21678;DHT22;11000;50.360;7.582;2022-08-16T07:51:14;27.50;99.90
21678;DHT22;11000;50.360;7.582;2022-08-16T07:53:35;27.50;99.90
21678;DHT22;11000;50.360;7.582;2022-08-16T07:55:58;27.90;99.90
21678;DHT22;11000;50.360;7.582;2022-08-16T07:58:22;27.90;99.90
21678;DHT22;11000;50.360;7.582;2022-08-16T08:00:43;28.20;99.90
21678;DHT22;11000;50.360;7.582;2022-08-16T08:03:05;28.10;99.90
21678;DHT22;11000;50.360;7.582;2022-08-16T08:05:28;28.10;99.90
21678;DHT22;11000;50.360;7.582;2022-08-16T08:07:49;28.10;99.90
21678;DHT22;11000;50.360;7.582;2022-08-16T08:10:12;28.20;99.90
21678;DHT22;11000;50.360;7.582;2022-08-16T08:12:33;28.30;99.90
21678;DHT22;11000;50.360;7.582;2022-08-16T08:14:54;28.30;99.90
21678;DHT22;11000;50.360;7.582;2022-08-16T08:17:15;28.60;99.90
21678;DHT22;11000;50.360;7.582;2022-08-16T08:19:36;28.60;99.90
21678;DHT22;11000;50.360;7.582;2022-08-16T08:21:57;28.60;99.90
21678;DHT22;11000;50.360;7.582;2022-08-16T08:24:18;28.50;99.90
21678;DHT22;11000;50.360;7.582;2022-08-16T08:26:39;28.40;99.90
21678;DHT22;11000;50.360;7.582;2022-08-16T08:29:01;28.50;99.90
21678;DHT22;11000;50.360;7.582;2022-08-16T08:31:22;29.00;99.90
21678;DHT22;11000;50.360;7.582;2022-08-16T08:33:43;28.90;99.90
21678;DHT22;11000;50.360;7.582;2022-08-16T08:36:05;28.90;99.90
21678;DHT22;11000;50.360;7.582;2022-08-16T08:38:28;29.00;99.90
21678;DHT22;11000;50.360;7.582;2022-08-16T08:40:50;29.10;99.90
21678;DHT22;11000;50.360;7.582;2022-08-16T08:43:11;29.20;99.90
21678;DHT22;11000;50.360;7.582;2022-08-16T08:45:33;29.10;99.90
21678;DHT22;11000;50.360;7.582;2022-08-16T08:47:54;28.90;99.90
21678;DHT22;11000;50.360;7.582;2022-08-16T08:50:16;29.30;99.90
21678;DHT22;11000;50.360;7.582;2022-08-16T08:52:37;29.10;99.90
21678;DHT22;11000;50.360;7.582;2022-08-16T08:54:59;29.50;99.90
21678;DHT22;11000;50.360;7.582;2022-08-16T08:57:23;29.40;99.90
21678;DHT22;11000;50.360;7.582;2022-08-16T08:59:44;29.10;99.90
21678;DHT22;11000;50.360;7.582;2022-08-16T09:02:05;28.80;99.90
21678;DHT22;11000;50.360;7.582;2022-08-16T09:04:28;29.20;99.90
21678;DHT22;11000;50.360;7.582;2022-08-16T09:06:49;29.20;99.90
21678;DHT22;11000;50.360;7.582;2022-08-16T09:09:12;29.00;99.90
21678;DHT22;11000;50.360;7.582;2022-08-16T09:11:34;28.50;99.90
21678;DHT22;11000;50.360;7.582;2022-08-16T09:13:55;28.60;99.90
21678;DHT22;11000;50.360;7.582;2022-08-16T09:16:17;28.90;99.90
21678;DHT22;11000;50.360;7.582;2022-08-16T09:18:38;29.00;99.90
21678;DHT22;11000;50.360;7.582;2022-08-16T09:20:58;28.60;99.90
21678;DHT22;11000;50.360;7.582;2022-08-16T09:23:19;29.30;99.90
21678;DHT22;11000;50.360;7.582;2022-08-16T09:25:40;28.90;99.90
21678;DHT22;11000;50.360;7.582;2022-08-16T09:28:03;29.20;99.90
21678;DHT22;11000;50.360;7.582;2022-08-16T09:30:24;28.60;99.90
21678;DHT22;11000;50.360;7.582;2022-08-16T09:32:46;28.10;99.90
21678;DHT22;11000;50.360;7.582;2022-08-16T09:35:07;28.00;99.90
21678;DHT22;11000;50.360;7.582;2022-08-16T09:37:29;27.50;99.90
21678;DHT22;11000;50.360;7.582;2022-08-16T09:39:50;27.90;99.90
21678;DHT22;11000;50.360;7.582;2022-08-16T09:42:11;28.40;99.90
21678;DHT22;11000;50.360;7.582;2022-08-16T09:44:34;29.00;99.90
21678;DHT22;11000;50.360;7.582;2022-08-16T09:46:56;29.60;99.90
21678;DHT22;11000;50.360;7.582;2022-08-16T09:49:18;29.90;99.90
21678;DHT22;11000;50.360;7.582;2022-08-16T09:51:39;30.20;99.90
21678;DHT22;11000;50.360;7.582;2022-08-16T09:53:59;30.00;99.90
21678;DHT22;11000;50.360;7.582;2022-08-16T09:56:32;30.00;99.90
21678;DHT22;11000;50.360;7.582;2022-08-16T09:58:54;29.70;99.90
21678;DHT22;11000;50.360;7.582;2022-08-16T10:01:15;29.30;99.90
21678;DHT22;11000;50.360;7.582;2022-08-16T10:03:35;28.50;99.90
21678;DHT22;11000;50.360;7.582;2022-08-16T10:05:56;28.90;99.90
21678;DHT22;11000;50.360;7.582;2022-08-16T10:08:17;29.10;99.90
21678;DHT22;11000;50.360;7.582;2022-08-16T10:10:38;29.40;99.90
21678;DHT22;11000;50.360;7.582;2022-08-16T10:13:22;29.30;99.90
21678;DHT22;11000;50.360;7.582;2022-08-16T10:15:45;28.10;99.90
21678;DHT22;11000;50.360;7.582;2022-08-16T10:18:07;27.80;99.90
21678;DHT22;11000;50.360;7.582;2022-08-16T10:20:34;27.70;99.90
21678;DHT22;11000;50.360;7.582;2022-08-16T10:22:54;27.80;99.90
21678;DHT22;11000;50.360;7.582;2022-08-16T10:25:15;28.20;99.90
21678;DHT22;11000;50.360;7.582;2022-08-16T10:27:35;27.70;99.90
21678;DHT22;11000;50.360;7.582;2022-08-16T10:29:56;27.50;99.90
21678;DHT22;11000;50.360;7.582;2022-08-16T10:32:16;27.60;99.90
21678;DHT22;11000;50.360;7.582;2022-08-16T10:34:37;27.60;99.90
21678;DHT22;11000;50.360;7.582;2022-08-16T10:36:58;27.40;99.90
21678;DHT22;11000;50.360;7.582;2022-08-16T10:39:19;27.70;99.90
21678;DHT22;11000;50.360;7.582;2022-08-16T10:41:40;28.10;99.90
21678;DHT22;11000;50.360;7.582;2022-08-16T10:44:01;28.00;99.90
21678;DHT22;11000;50.360;7.582;2022-08-16T10:46:23;28.20;99.90
21678;DHT22;11000;50.360;7.582;2022-08-16T10:48:44;28.20;99.90
21678;DHT22;11000;50.360;7.582;2022-08-16T10:51:05;28.70;99.90
21678;DHT22;11000;50.360;7.582;2022-08-16T10:53:27;28.70;99.90
21678;DHT22;11000;50.360;7.582;2022-08-16T10:55:48;29.10;99.90
21678;DHT22;11000;50.360;7.582;2022-08-16T10:58:13;29.50;99.90
21678;DHT22;11000;50.360;7.582;2022-08-16T11:00:37;29.30;99.90
21678;DHT22;11000;50.360;7.582;2022-08-16T11:03:01;29.90;98.70
21678;DHT22;11000;50.360;7.582;2022-08-16T11:05:32;30.50;96.50
21678;DHT22;11000;50.360;7.582;2022-08-16T11:07:54;30.80;94.30
21678;DHT22;11000;50.360;7.582;2022-08-16T11:10:33;30.20;94.30
21678;DHT22;11000;50.360;7.582;2022-08-16T11:12:54;30.00;97.60
21678;DHT22;11000;50.360;7.582;2022-08-16T11:15:16;29.80;96.10
21678;DHT22;11000;50.360;7.582;2022-08-16T11:17:37;29.20;97.70
21678;DHT22;11000;50.360;7.582;2022-08-16T11:19:59;28.40;99.90
21678;DHT22;11000;50.360;7.582;2022-08-16T11:22:21;28.30;99.90
21678;DHT22;11000;50.360;7.582;2022-08-16T11:24:41;28.90;99.90
21678;DHT22;11000;50.360;7.582;2022-08-16T11:27:02;29.10;98.00
21678;DHT22;11000;50.360;7.582;2022-08-16T11:29:25;29.50;94.50
21678;DHT22;11000;50.360;7.582;2022-08-16T11:31:47;29.50;93.60
21678;DHT22;11000;50.360;7.582;2022-08-16T11:34:09;29.60;93.50
21678;DHT22;11000;50.360;7.582;2022-08-16T11:36:30;29.40;93.80
21678;DHT22;11000;50.360;7.582;2022-08-16T11:38:51;30.30;92.20
21678;DHT22;11000;50.360;7.582;2022-08-16T11:41:12;30.20;89.80
21678;DHT22;11000;50.360;7.582;2022-08-16T11:43:35;30.10;91.20
21678;DHT22;11000;50.360;7.582;2022-08-16T11:45:58;30.50;87.20
21678;DHT22;11000;50.360;7.582;2022-08-16T11:48:19;31.10;86.00
21678;DHT22;11000;50.360;7.582;2022-08-16T11:50:42;32.00;80.20
21678;DHT22;11000;50.360;7.582;2022-08-16T11:53:05;32.30;76.50
21678;DHT22;11000;50.360;7.582;2022-08-16T11:55:26;32.40;76.60
21678;DHT22;11000;50.360;7.582;2022-08-16T11:57:46;31.80;74.30
21678;DHT22;11000;50.360;7.582;2022-08-16T12:00:14;32.10;75.40
21678;DHT22;11000;50.360;7.582;2022-08-16T12:02:36;32.60;73.00
21678;DHT22;11000;50.360;7.582;2022-08-16T12:04:58;32.10;71.10
21678;DHT22;11000;50.360;7.582;2022-08-16T12:07:19;31.00;76.70
21678;DHT22;11000;50.360;7.582;2022-08-16T12:09:40;31.60;73.60
21678;DHT22;11000;50.360;7.582;2022-08-16T12:12:01;32.30;69.40
21678;DHT22;11000;50.360;7.582;2022-08-16T12:14:22;32.30;71.00
21678;DHT22;11000;50.360;7.582;2022-08-16T12:16:45;32.30;69.60
21678;DHT22;11000;50.360;7.582;2022-08-16T12:19:07;32.10;70.90
21678;DHT22;11000;50.360;7.582;2022-08-16T12:21:28;32.00;70.10
21678;DHT22;11000;50.360;7.582;2022-08-16T12:23:51;30.90;72.40
21678;DHT22;11000;50.360;7.582;2022-08-16T12:26:12;31.10;75.60
21678;DHT22;11000;50.360;7.582;2022-08-16T12:28:32;31.40;72.80
21678;DHT22;11000;50.360;7.582;2022-08-16T12:30:53;30.50;75.30
21678;DHT22;11000;50.360;7.582;2022-08-16T12:33:16;30.70;78.10
21678;DHT22;11000;50.360;7.582;2022-08-16T12:35:38;31.30;75.10
21678;DHT22;11000;50.360;7.582;2022-08-16T12:37:59;31.10;72.30
21678;DHT22;11000;50.360;7.582;2022-08-16T12:40:23;31.70;73.40
21678;DHT22;11000;50.360;7.582;2022-08-16T12:42:44;30.90;71.30
21678;DHT22;11000;50.360;7.582;2022-08-16T12:45:08;30.10;75.60
21678;DHT22;11000;50.360;7.582;2022-08-16T12:47:30;29.90;76.70
21678;DHT22;11000;50.360;7.582;2022-08-16T12:50:09;29.70;77.50
21678;DHT22;11000;50.360;7.582;2022-08-16T12:52:30;29.50;78.20
21678;DHT22;11000;50.360;7.582;2022-08-16T12:54:51;29.60;77.20
21678;DHT22;11000;50.360;7.582;2022-08-16T12:57:11;29.60;77.40
21678;DHT22;11000;50.360;7.582;2022-08-16T12:59:35;30.10;76.10
21678;DHT22;11000;50.360;7.582;2022-08-16T13:01:57;30.80;74.60
21678;DHT22;11000;50.360;7.582;2022-08-16T13:04:18;31.10;69.90
21678;DHT22;11000;50.360;7.582;2022-08-16T13:06:40;31.30;70.70
21678;DHT22;11000;50.360;7.582;2022-08-16T13:09:03;31.10;67.20
21678;DHT22;11000;50.360;7.582;2022-08-16T13:11:40;31.40;67.80
21678;DHT22;11000;50.360;7.582;2022-08-16T13:14:07;31.10;67.20
21678;DHT22;11000;50.360;7.582;2022-08-16T13:16:28;31.30;69.40
21678;DHT22;11000;50.360;7.582;2022-08-16T13:18:49;32.20;66.20
21678;DHT22;11000;50.360;7.582;2022-08-16T13:21:10;33.00;64.80
21678;DHT22;11000;50.360;7.582;2022-08-16T13:23:33;32.40;63.70
21678;DHT22;11000;50.360;7.582;2022-08-16T13:25:54;31.70;64.20
21678;DHT22;11000;50.360;7.582;2022-08-16T13:28:17;31.40;65.20
21678;DHT22;11000;50.360;7.582;2022-08-16T13:30:52;31.70;66.10
21678;DHT22;11000;50.360;7.582;2022-08-16T13:33:20;32.50;63.00
21678;DHT22;11000;50.360;7.582;2022-08-16T13:35:43;32.50;60.80
21678;DHT22;11000;50.360;7.582;2022-08-16T13:38:04;32.60;59.80
21678;DHT22;11000;50.360;7.582;2022-08-16T13:40:25;32.60;59.90
21678;DHT22;11000;50.360;7.582;2022-08-16T13:42:46;32.70;59.40
21678;DHT22;11000;50.360;7.582;2022-08-16T13:45:08;32.50;59.10
21678;DHT22;11000;50.360;7.582;2022-08-16T13:47:30;32.50;58.20
21678;DHT22;11000;50.360;7.582;2022-08-16T13:49:51;32.50;59.50
21678;DHT22;11000;50.360;7.582;2022-08-16T13:52:12;31.80;59.90
21678;DHT22;11000;50.360;7.582;2022-08-16T13:54:33;32.00;59.60
21678;DHT22;11000;50.360;7.582;2022-08-16T13:56:53;32.00;60.60
21678;DHT22;11000;50.360;7.582;2022-08-16T13:59:14;31.70;59.20
21678;DHT22;11000;50.360;7.582;2022-08-16T14:01:34;32.00;59.90
21678;DHT22;11000;50.360;7.582;2022-08-16T14:03:56;32.40;59.70
21678;DHT22;11000;50.360;7.582;2022-08-16T14:06:16;32.30;58.70
21678;DHT22;11000;50.360;7.582;2022-08-16T14:08:38;32.10;58.20
21678;DHT22;11000;50.360;7.582;2022-08-16T14:10:59;32.50;58.90
21678;DHT22;11000;50.360;7.582;2022-08-16T14:13:20;32.80;58.90
21678;DHT22;11000;50.360;7.582;2022-08-16T14:15:40;33.00;58.50
21678;DHT22;11000;50.360;7.582;2022-08-16T14:18:01;32.30;57.30
21678;DHT22;11000;50.360;7.582;2022-08-16T14:20:21;32.10;59.00
21678;DHT22;11000;50.360;7.582;2022-08-16T14:22:42;31.30;58.80
21678;DHT22;11000;50.360;7.582;2022-08-16T14:25:08;31.30;59.70
21678;DHT22;11000;50.360;7.582;2022-08-16T14:27:30;31.20;58.80
21678;DHT22;11000;50.360;7.582;2022-08-16T14:29:51;31.00;58.80
21678;DHT22;11000;50.360;7.582;2022-08-16T14:32:12;31.10;59.80
21678;DHT22;11000;50.360;7.582;2022-08-16T14:34:33;31.10;59.80
21678;DHT22;11000;50.360;7.582;2022-08-16T14:36:54;31.40;58.70
21678;DHT22;11000;50.360;7.582;2022-08-16T14:39:14;31.50;58.10
21678;DHT22;11000;50.360;7.582;2022-08-16T14:41:35;31.70;57.70
21678;DHT22;11000;50.360;7.582;2022-08-16T14:43:56;31.70;57.90
21678;DHT22;11000;50.360;7.582;2022-08-16T14:46:17;31.90;58.10
21678;DHT22;11000;50.360;7.582;2022-08-16T14:48:38;32.10;57.60
21678;DHT22;11000;50.360;7.582;2022-08-16T14:50:58;31.60;57.20
21678;DHT22;11000;50.360;7.582;2022-08-16T14:53:19;31.80;58.50
21678;DHT22;11000;50.360;7.582;2022-08-16T14:55:39;32.20;57.90
21678;DHT22;11000;50.360;7.582;2022-08-16T14:58:00;32.50;57.10
21678;DHT22;11000;50.360;7.582;2022-08-16T15:00:23;32.80;56.70